sensor_id;sensor_type;location;lat;lon;timestamp;P1;durP1;ratioP1;P2;durP2;ratioP2
5801;SDS011;2927;49.366;8.530;2022-11-20T00:02:17;21.63;;;9.83;;
5801;SDS011;2927;49.366;8.530;2022-11-20T00:04:43;19.33;;;9.23;;
5801;SDS011;2927;49.366;8.530;2022-11-20T00:07:08;13.83;;;7.73;;
5801;SDS011;2927;49.366;8.530;2022-11-20T00:09:34;16.53;;;8.87;;
5801;SDS011;2927;49.366;8.530;2022-11-20T00:11:59;15.87;;;8.50;;
5801;SDS011;2927;49.366;8.530;2022-11-20T00:14:25;20.47;;;9.17;;
5801;SDS011;2927;49.366;8.530;2022-11-20T00:16:50;24.97;;;11.13;;
5801;SDS011;2927;49.366;8.530;2022-11-20T00:19:16;19.70;;;10.43;;
5801;SDS011;2927;49.366;8.530;2022-11-20T00:21:41;28.67;;;10.80;;
5801;SDS011;2927;49.366;8.530;2022-11-20T00:24:08;30.23;;;12.17;;
5801;SDS011;2927;49.366;8.530;2022-11-20T00:26:35;21.33;;;9.97;;
5801;SDS011;2927;49.366;8.530;2022-11-20T00:29:01;19.20;;;9.30;;
5801;SDS011;2927;49.366;8.530;2022-11-20T00:31:27;24.50;;;9.60;;
5801;SDS011;2927;49.366;8.530;2022-11-20T00:33:53;20.07;;;9.63;;
5801;SDS011;2927;49.366;8.530;2022-11-20T00:36:20;19.10;;;9.20;;
5801;SDS011;2927;49.366;8.530;2022-11-20T00:38:50;16.47;;;9.03;;
5801;SDS011;2927;49.366;8.530;2022-11-20T00:41:17;15.27;;;7.53;;
5801;SDS011;2927;49.366;8.530;2022-11-20T00:43:42;12.37;;;6.83;;
5801;SDS011;2927;49.366;8.530;2022-11-20T00:46:15;18.33;;;9.60;;
5801;SDS011;2927;49.366;8.530;2022-11-20T00:48:42;16.97;;;7.90;;
5801;SDS011;2927;49.366;8.530;2022-11-20T00:51:08;20.20;;;9.30;;
5801;SDS011;2927;49.366;8.530;2022-11-20T00:53:35;19.40;;;8.83;;
5801;SDS011;2927;49.366;8.530;2022-11-20T00:56:03;19.57;;;8.40;;
5801;SDS011;2927;49.366;8.530;2022-11-20T00:58:31;22.47;;;9.70;;
5801;SDS011;2927;49.366;8.530;2022-11-20T01:03:38;21.10;;;9.17;;
5801;SDS011;2927;49.366;8.530;2022-11-20T01:06:07;21.20;;;9.40;;
5801;SDS011;2927;49.366;8.530;2022-11-20T01:08:37;17.90;;;7.20;;
5801;SDS011;2927;49.366;8.530;2022-11-20T01:11:05;21.57;;;8.90;;
5801;SDS011;2927;49.366;8.530;2022-11-20T01:13:32;18.10;;;9.40;;
5801;SDS011;2927;49.366;8.530;2022-11-20T01:18:37;30.40;;;12.00;;
5801;SDS011;2927;49.366;8.530;2022-11-20T01:21:37;23.83;;;10.47;;
5801;SDS011;2927;49.366;8.530;2022-11-20T01:24:00;28.10;;;11.57;;
5801;SDS011;2927;49.366;8.530;2022-11-20T01:26:27;28.67;;;10.97;;
5801;SDS011;2927;49.366;8.530;2022-11-20T01:28:54;29.97;;;12.23;;
5801;SDS011;2927;49.366;8.530;2022-11-20T01:31:21;28.13;;;10.83;;
5801;SDS011;2927;49.366;8.530;2022-11-20T01:33:52;29.70;;;12.10;;
5801;SDS011;2927;49.366;8.530;2022-11-20T01:36:20;28.70;;;11.57;;
5801;SDS011;2927;49.366;8.530;2022-11-20T01:38:50;28.53;;;11.10;;
5801;SDS011;2927;49.366;8.530;2022-11-20T01:41:17;27.93;;;10.17;;
5801;SDS011;2927;49.366;8.530;2022-11-20T01:44:03;23.33;;;11.27;;
5801;SDS011;2927;49.366;8.530;2022-11-20T01:46:29;27.90;;;11.13;;
5801;SDS011;2927;49.366;8.530;2022-11-20T01:48:58;23.83;;;10.30;;
5801;SDS011;2927;49.366;8.530;2022-11-20T01:51:44;28.90;;;11.13;;
5801;SDS011;2927;49.366;8.530;2022-11-20T01:54:17;25.40;;;10.80;;
5801;SDS011;2927;49.366;8.530;2022-11-20T01:56:50;23.03;;;10.93;;
5801;SDS011;2927;49.366;8.530;2022-11-20T01:59:19;28.13;;;12.20;;
5801;SDS011;2927;49.366;8.530;2022-11-20T02:01:46;27.20;;;12.80;;
5801;SDS011;2927;49.366;8.530;2022-11-20T02:04:12;33.93;;;13.77;;
5801;SDS011;2927;49.366;8.530;2022-11-20T02:06:40;30.13;;;11.23;;
5801;SDS011;2927;49.366;8.530;2022-11-20T02:09:11;29.93;;;12.80;;
5801;SDS011;2927;49.366;8.530;2022-11-20T02:11:37;27.70;;;12.17;;
5801;SDS011;2927;49.366;8.530;2022-11-20T02:14:02;39.13;;;13.43;;
5801;SDS011;2927;49.366;8.530;2022-11-20T02:16:30;22.43;;;10.30;;
5801;SDS011;2927;49.366;8.530;2022-11-20T02:19:00;27.10;;;11.53;;
5801;SDS011;2927;49.366;8.530;2022-11-20T02:24:09;31.50;;;12.47;;
5801;SDS011;2927;49.366;8.530;2022-11-20T02:26:43;30.33;;;12.67;;
5801;SDS011;2927;49.366;8.530;2022-11-20T02:29:24;27.83;;;12.60;;
5801;SDS011;2927;49.366;8.530;2022-11-20T02:31:52;29.03;;;12.77;;
5801;SDS011;2927;49.366;8.530;2022-11-20T02:34:21;32.50;;;12.67;;
5801;SDS011;2927;49.366;8.530;2022-11-20T02:36:47;25.57;;;12.37;;
5801;SDS011;2927;49.366;8.530;2022-11-20T02:39:14;32.37;;;13.90;;
5801;SDS011;2927;49.366;8.530;2022-11-20T02:41:41;30.20;;;12.77;;
5801;SDS011;2927;49.366;8.530;2022-11-20T02:44:07;27.07;;;12.70;;
5801;SDS011;2927;49.366;8.530;2022-11-20T02:46:33;36.93;;;13.37;;
5801;SDS011;2927;49.366;8.530;2022-11-20T02:49:00;30.37;;;12.37;;
5801;SDS011;2927;49.366;8.530;2022-11-20T02:51:27;24.43;;;11.70;;
5801;SDS011;2927;49.366;8.530;2022-11-20T02:53:53;27.77;;;11.87;;
5801;SDS011;2927;49.366;8.530;2022-11-20T02:56:19;33.53;;;11.77;;
5801;SDS011;2927;49.366;8.530;2022-11-20T02:58:45;26.73;;;11.07;;
5801;SDS011;2927;49.366;8.530;2022-11-20T03:01:11;30.63;;;11.17;;
5801;SDS011;2927;49.366;8.530;2022-11-20T03:03:36;27.00;;;11.73;;
5801;SDS011;2927;49.366;8.530;2022-11-20T03:06:02;26.83;;;10.73;;
5801;SDS011;2927;49.366;8.530;2022-11-20T03:08:27;29.10;;;11.90;;
5801;SDS011;2927;49.366;8.530;2022-11-20T03:10:53;28.07;;;11.10;;
5801;SDS011;2927;49.366;8.530;2022-11-20T03:13:19;20.47;;;10.13;;
5801;SDS011;2927;49.366;8.530;2022-11-20T03:15:44;24.73;;;10.10;;
5801;SDS011;2927;49.366;8.530;2022-11-20T03:18:10;28.13;;;10.83;;
5801;SDS011;2927;49.366;8.530;2022-11-20T03:20:35;22.17;;;9.63;;
5801;SDS011;2927;49.366;8.530;2022-11-20T03:23:01;26.47;;;9.80;;
5801;SDS011;2927;49.366;8.530;2022-11-20T03:25:27;26.47;;;10.83;;
5801;SDS011;2927;49.366;8.530;2022-11-20T03:27:53;21.33;;;9.23;;
5801;SDS011;2927;49.366;8.530;2022-11-20T03:30:19;22.77;;;10.73;;
5801;SDS011;2927;49.366;8.530;2022-11-20T03:32:45;19.87;;;9.67;;
5801;SDS011;2927;49.366;8.530;2022-11-20T03:35:10;22.17;;;9.33;;
5801;SDS011;2927;49.366;8.530;2022-11-20T03:37:36;15.47;;;8.90;;
5801;SDS011;2927;49.366;8.530;2022-11-20T03:40:02;21.73;;;9.40;;
5801;SDS011;2927;49.366;8.530;2022-11-20T03:42:28;18.73;;;9.23;;
5801;SDS011;2927;49.366;8.530;2022-11-20T03:45:12;18.10;;;9.87;;
5801;SDS011;2927;49.366;8.530;2022-11-20T03:47:39;24.03;;;9.60;;
5801;SDS011;2927;49.366;8.530;2022-11-20T03:50:05;20.97;;;10.73;;
5801;SDS011;2927;49.366;8.530;2022-11-20T03:52:30;23.33;;;8.97;;
5801;SDS011;2927;49.366;8.530;2022-11-20T03:54:56;21.73;;;9.20;;
5801;SDS011;2927;49.366;8.530;2022-11-20T03:57:21;21.87;;;10.10;;
5801;SDS011;2927;49.366;8.530;2022-11-20T03:59:47;21.10;;;9.30;;
5801;SDS011;2927;49.366;8.530;2022-11-20T04:02:12;22.10;;;9.93;;
5801;SDS011;2927;49.366;8.530;2022-11-20T04:04:38;23.20;;;9.10;;
5801;SDS011;2927;49.366;8.530;2022-11-20T04:07:04;24.23;;;10.30;;
5801;SDS011;2927;49.366;8.530;2022-11-20T04:09:29;26.50;;;10.27;;
5801;SDS011;2927;49.366;8.530;2022-11-20T04:11:55;23.57;;;11.03;;
5801;SDS011;2927;49.366;8.530;2022-11-20T04:14:20;21.33;;;8.93;;
5801;SDS011;2927;49.366;8.530;2022-11-20T04:16:46;21.93;;;9.80;;
5801;SDS011;2927;49.366;8.530;2022-11-20T04:19:13;26.40;;;9.57;;
5801;SDS011;2927;49.366;8.530;2022-11-20T04:21:39;23.63;;;10.83;;
5801;SDS011;2927;49.366;8.530;2022-11-20T04:24:05;15.90;;;8.50;;
5801;SDS011;2927;49.366;8.530;2022-11-20T04:26:32;24.10;;;10.93;;
5801;SDS011;2927;49.366;8.530;2022-11-20T04:28:58;27.30;;;11.40;;
5801;SDS011;2927;49.366;8.530;2022-11-20T04:31:25;28.20;;;11.27;;
5801;SDS011;2927;49.366;8.530;2022-11-20T04:33:52;27.47;;;11.37;;
5801;SDS011;2927;49.366;8.530;2022-11-20T04:36:19;24.13;;;12.03;;
5801;SDS011;2927;49.366;8.530;2022-11-20T04:38:46;25.47;;;11.87;;
5801;SDS011;2927;49.366;8.530;2022-11-20T04:41:16;27.40;;;12.77;;
5801;SDS011;2927;49.366;8.530;2022-11-20T04:43:50;27.90;;;11.70;;
5801;SDS011;2927;49.366;8.530;2022-11-20T04:46:17;30.20;;;13.43;;
5801;SDS011;2927;49.366;8.530;2022-11-20T04:48:44;25.67;;;12.07;;
5801;SDS011;2927;49.366;8.530;2022-11-20T04:51:10;30.73;;;13.20;;
5801;SDS011;2927;49.366;8.530;2022-11-20T04:53:36;35.13;;;13.73;;
5801;SDS011;2927;49.366;8.530;2022-11-20T04:56:02;30.50;;;12.60;;
5801;SDS011;2927;49.366;8.530;2022-11-20T04:58:29;26.80;;;11.20;;
5801;SDS011;2927;49.366;8.530;2022-11-20T05:01:10;25.57;;;11.40;;
5801;SDS011;2927;49.366;8.530;2022-11-20T05:03:40;23.30;;;11.40;;
5801;SDS011;2927;49.366;8.530;2022-11-20T05:06:08;24.83;;;11.70;;
5801;SDS011;2927;49.366;8.530;2022-11-20T05:08:35;24.87;;;10.53;;
5801;SDS011;2927;49.366;8.530;2022-11-20T05:11:04;30.57;;;12.50;;
5801;SDS011;2927;49.366;8.530;2022-11-20T05:13:33;25.40;;;11.40;;
5801;SDS011;2927;49.366;8.530;2022-11-20T05:16:09;28.30;;;12.20;;
5801;SDS011;2927;49.366;8.530;2022-11-20T05:18:43;21.73;;;10.50;;
5801;SDS011;2927;49.366;8.530;2022-11-20T05:21:09;29.80;;;13.03;;
5801;SDS011;2927;49.366;8.530;2022-11-20T05:23:35;26.13;;;12.87;;
5801;SDS011;2927;49.366;8.530;2022-11-20T05:26:02;28.40;;;12.00;;
5801;SDS011;2927;49.366;8.530;2022-11-20T05:28:28;30.20;;;12.60;;
5801;SDS011;2927;49.366;8.530;2022-11-20T05:30:55;27.00;;;11.20;;
5801;SDS011;2927;49.366;8.530;2022-11-20T05:33:21;30.07;;;12.10;;
5801;SDS011;2927;49.366;8.530;2022-11-20T05:35:47;29.17;;;12.77;;
5801;SDS011;2927;49.366;8.530;2022-11-20T05:38:13;23.70;;;11.70;;
5801;SDS011;2927;49.366;8.530;2022-11-20T05:40:39;24.07;;;11.77;;
5801;SDS011;2927;49.366;8.530;2022-11-20T05:43:04;26.17;;;11.40;;
5801;SDS011;2927;49.366;8.530;2022-11-20T05:45:30;31.57;;;12.27;;
5801;SDS011;2927;49.366;8.530;2022-11-20T05:47:59;25.80;;;11.77;;
5801;SDS011;2927;49.366;8.530;2022-11-20T05:50:27;31.90;;;12.63;;
5801;SDS011;2927;49.366;8.530;2022-11-20T05:52:53;36.60;;;13.47;;
5801;SDS011;2927;49.366;8.530;2022-11-20T05:55:19;27.70;;;12.87;;
5801;SDS011;2927;49.366;8.530;2022-11-20T05:57:44;25.90;;;11.07;;
5801;SDS011;2927;49.366;8.530;2022-11-20T06:00:10;32.47;;;12.20;;
5801;SDS011;2927;49.366;8.530;2022-11-20T06:02:36;30.93;;;12.70;;
5801;SDS011;2927;49.366;8.530;2022-11-20T06:05:01;32.57;;;13.43;;
5801;SDS011;2927;49.366;8.530;2022-11-20T06:07:27;40.27;;;15.17;;
5801;SDS011;2927;49.366;8.530;2022-11-20T06:09:53;32.00;;;14.50;;
5801;SDS011;2927;49.366;8.530;2022-11-20T06:12:18;33.73;;;13.63;;
5801;SDS011;2927;49.366;8.530;2022-11-20T06:14:44;28.53;;;13.57;;
5801;SDS011;2927;49.366;8.530;2022-11-20T06:17:09;31.87;;;14.03;;
5801;SDS011;2927;49.366;8.530;2022-11-20T06:19:35;37.30;;;15.30;;
5801;SDS011;2927;49.366;8.530;2022-11-20T06:22:00;29.60;;;14.30;;
5801;SDS011;2927;49.366;8.530;2022-11-20T06:24:26;24.23;;;11.93;;
5801;SDS011;2927;49.366;8.530;2022-11-20T06:26:51;32.20;;;13.70;;
5801;SDS011;2927;49.366;8.530;2022-11-20T06:29:17;38.37;;;14.80;;
5801;SDS011;2927;49.366;8.530;2022-11-20T06:31:42;39.97;;;14.17;;
5801;SDS011;2927;49.366;8.530;2022-11-20T06:34:08;33.60;;;12.77;;
5801;SDS011;2927;49.366;8.530;2022-11-20T06:36:33;34.90;;;13.17;;
5801;SDS011;2927;49.366;8.530;2022-11-20T06:38:59;32.07;;;13.33;;
5801;SDS011;2927;49.366;8.530;2022-11-20T06:41:25;33.07;;;14.47;;
5801;SDS011;2927;49.366;8.530;2022-11-20T06:43:51;30.27;;;12.50;;
5801;SDS011;2927;49.366;8.530;2022-11-20T06:46:17;25.93;;;11.60;;
5801;SDS011;2927;49.366;8.530;2022-11-20T06:48:44;41.00;;;12.07;;
5801;SDS011;2927;49.366;8.530;2022-11-20T06:51:10;24.83;;;12.90;;
5801;SDS011;2927;49.366;8.530;2022-11-20T06:53:36;27.60;;;12.53;;
5801;SDS011;2927;49.366;8.530;2022-11-20T06:56:02;33.50;;;14.00;;
5801;SDS011;2927;49.366;8.530;2022-11-20T06:58:28;35.90;;;14.50;;
5801;SDS011;2927;49.366;8.530;2022-11-20T07:01:02;29.83;;;13.50;;
5801;SDS011;2927;49.366;8.530;2022-11-20T07:03:30;28.33;;;13.73;;
5801;SDS011;2927;49.366;8.530;2022-11-20T07:05:56;32.23;;;14.80;;
5801;SDS011;2927;49.366;8.530;2022-11-20T07:08:22;28.57;;;13.03;;
5801;SDS011;2927;49.366;8.530;2022-11-20T07:10:48;32.83;;;13.30;;
5801;SDS011;2927;49.366;8.530;2022-11-20T07:13:14;30.90;;;14.20;;
5801;SDS011;2927;49.366;8.530;2022-11-20T07:15:39;26.33;;;13.37;;
5801;SDS011;2927;49.366;8.530;2022-11-20T07:18:05;28.67;;;12.80;;
5801;SDS011;2927;49.366;8.530;2022-11-20T07:20:30;31.00;;;13.10;;
5801;SDS011;2927;49.366;8.530;2022-11-20T07:22:56;25.93;;;12.80;;
5801;SDS011;2927;49.366;8.530;2022-11-20T07:25:23;26.77;;;12.67;;
5801;SDS011;2927;49.366;8.530;2022-11-20T07:27:49;28.60;;;12.30;;
5801;SDS011;2927;49.366;8.530;2022-11-20T07:30:15;25.20;;;12.13;;
5801;SDS011;2927;49.366;8.530;2022-11-20T07:32:41;27.43;;;11.93;;
5801;SDS011;2927;49.366;8.530;2022-11-20T07:35:07;26.87;;;12.83;;
5801;SDS011;2927;49.366;8.530;2022-11-20T07:37:36;25.97;;;11.53;;
5801;SDS011;2927;49.366;8.530;2022-11-20T07:40:02;27.17;;;12.00;;
5801;SDS011;2927;49.366;8.530;2022-11-20T07:42:28;34.90;;;10.93;;
5801;SDS011;2927;49.366;8.530;2022-11-20T07:44:54;23.10;;;12.43;;
5801;SDS011;2927;49.366;8.530;2022-11-20T07:47:19;23.83;;;9.83;;
5801;SDS011;2927;49.366;8.530;2022-11-20T07:49:45;18.63;;;9.80;;
5801;SDS011;2927;49.366;8.530;2022-11-20T07:52:10;26.60;;;11.77;;
5801;SDS011;2927;49.366;8.530;2022-11-20T07:54:36;28.30;;;11.37;;
5801;SDS011;2927;49.366;8.530;2022-11-20T07:57:01;23.80;;;11.33;;
5801;SDS011;2927;49.366;8.530;2022-11-20T07:59:27;28.13;;;11.63;;
5801;SDS011;2927;49.366;8.530;2022-11-20T08:01:52;34.27;;;13.60;;
5801;SDS011;2927;49.366;8.530;2022-11-20T08:04:18;25.60;;;11.10;;
5801;SDS011;2927;49.366;8.530;2022-11-20T08:06:43;27.87;;;11.60;;
5801;SDS011;2927;49.366;8.530;2022-11-20T08:09:09;22.83;;;11.00;;
5801;SDS011;2927;49.366;8.530;2022-11-20T08:11:34;18.10;;;9.10;;
5801;SDS011;2927;49.366;8.530;2022-11-20T08:14:18;23.33;;;10.37;;
5801;SDS011;2927;49.366;8.530;2022-11-20T08:16:45;19.70;;;9.90;;
5801;SDS011;2927;49.366;8.530;2022-11-20T08:19:12;21.93;;;9.40;;
5801;SDS011;2927;49.366;8.530;2022-11-20T08:21:39;20.17;;;11.10;;
5801;SDS011;2927;49.366;8.530;2022-11-20T08:24:05;25.20;;;11.80;;
5801;SDS011;2927;49.366;8.530;2022-11-20T08:26:31;16.33;;;8.10;;
5801;SDS011;2927;49.366;8.530;2022-11-20T08:28:57;16.97;;;8.90;;
5801;SDS011;2927;49.366;8.530;2022-11-20T08:31:24;24.13;;;12.47;;
5801;SDS011;2927;49.366;8.530;2022-11-20T08:33:51;60.93;;;31.00;;
5801;SDS011;2927;49.366;8.530;2022-11-20T08:36:17;61.00;;;30.63;;
5801;SDS011;2927;49.366;8.530;2022-11-20T08:38:47;15.40;;;10.23;;
5801;SDS011;2927;49.366;8.530;2022-11-20T08:41:17;15.60;;;9.20;;
5801;SDS011;2927;49.366;8.530;2022-11-20T08:43:49;22.20;;;14.07;;
5801;SDS011;2927;49.366;8.530;2022-11-20T08:46:15;14.13;;;8.93;;
5801;SDS011;2927;49.366;8.530;2022-11-20T08:48:41;9.33;;;7.30;;
5801;SDS011;2927;49.366;8.530;2022-11-20T08:51:08;11.37;;;7.33;;
5801;SDS011;2927;49.366;8.530;2022-11-20T08:53:34;8.60;;;6.37;;
5801;SDS011;2927;49.366;8.530;2022-11-20T08:55:59;9.83;;;6.13;;
5801;SDS011;2927;49.366;8.530;2022-11-20T08:58:25;12.37;;;6.70;;
5801;SDS011;2927;49.366;8.530;2022-11-20T09:00:51;7.20;;;5.57;;
5801;SDS011;2927;49.366;8.530;2022-11-20T09:03:17;11.67;;;6.63;;
5801;SDS011;2927;49.366;8.530;2022-11-20T09:05:42;9.53;;;6.37;;
5801;SDS011;2927;49.366;8.530;2022-11-20T09:08:08;7.93;;;5.73;;
5801;SDS011;2927;49.366;8.530;2022-11-20T09:10:33;13.60;;;5.90;;
5801;SDS011;2927;49.366;8.530;2022-11-20T09:12:59;5.90;;;4.03;;
5801;SDS011;2927;49.366;8.530;2022-11-20T09:15:25;4.83;;;4.23;;
5801;SDS011;2927;49.366;8.530;2022-11-20T09:20:20;9.80;;;6.57;;
5801;SDS011;2927;49.366;8.530;2022-11-20T09:22:46;6.07;;;4.33;;
5801;SDS011;2927;49.366;8.530;2022-11-20T09:25:11;8.67;;;5.43;;
5801;SDS011;2927;49.366;8.530;2022-11-20T09:27:37;6.73;;;5.50;;
5801;SDS011;2927;49.366;8.530;2022-11-20T09:30:03;8.10;;;5.80;;
5801;SDS011;2927;49.366;8.530;2022-11-20T09:32:29;11.63;;;7.17;;
5801;SDS011;2927;49.366;8.530;2022-11-20T09:34:55;11.23;;;6.50;;
5801;SDS011;2927;49.366;8.530;2022-11-20T09:37:20;10.10;;;6.43;;
5801;SDS011;2927;49.366;8.530;2022-11-20T09:39:46;10.63;;;7.13;;
5801;SDS011;2927;49.366;8.530;2022-11-20T09:44:49;12.13;;;7.37;;
5801;SDS011;2927;49.366;8.530;2022-11-20T09:47:47;11.27;;;6.27;;
5801;SDS011;2927;49.366;8.530;2022-11-20T09:55:46;12.87;;;7.00;;
5801;SDS011;2927;49.366;8.530;2022-11-20T09:58:21;15.97;;;10.13;;
5801;SDS011;2927;49.366;8.530;2022-11-20T10:00:55;19.93;;;10.83;;
5801;SDS011;2927;49.366;8.530;2022-11-20T10:04:12;18.03;;;10.27;;
5801;SDS011;2927;49.366;8.530;2022-11-20T10:06:16;12.33;;;8.23;;
5801;SDS011;2927;49.366;8.530;2022-11-20T10:08:54;13.90;;;7.83;;
5801;SDS011;2927;49.366;8.530;2022-11-20T10:11:34;10.40;;;5.73;;
5801;SDS011;2927;49.366;8.530;2022-11-20T10:25:13;7.73;;;5.20;;
5801;SDS011;2927;49.366;8.530;2022-11-20T10:30:21;11.00;;;7.00;;
5801;SDS011;2927;49.366;8.530;2022-11-20T10:33:00;12.80;;;5.67;;
5801;SDS011;2927;49.366;8.530;2022-11-20T10:35:35;9.33;;;4.87;;
5801;SDS011;2927;49.366;8.530;2022-11-20T10:38:09;10.57;;;6.07;;
5801;SDS011;2927;49.366;8.530;2022-11-20T10:40:43;5.70;;;4.70;;
5801;SDS011;2927;49.366;8.530;2022-11-20T10:45:55;5.73;;;4.17;;
5801;SDS011;2927;49.366;8.530;2022-11-20T10:48:24;4.00;;;3.60;;
5801;SDS011;2927;49.366;8.530;2022-11-20T10:50:59;6.87;;;3.20;;
5801;SDS011;2927;49.366;8.530;2022-11-20T10:53:33;3.43;;;2.70;;
5801;SDS011;2927;49.366;8.530;2022-11-20T10:56:05;1.57;;;1.47;;
5801;SDS011;2927;49.366;8.530;2022-11-20T11:01:17;2.20;;;2.10;;
5801;SDS011;2927;49.366;8.530;2022-11-20T11:03:46;8.20;;;2.93;;
5801;SDS011;2927;49.366;8.530;2022-11-20T11:06:22;4.80;;;3.97;;
5801;SDS011;2927;49.366;8.530;2022-11-20T11:08:58;11.03;;;5.07;;
5801;SDS011;2927;49.366;8.530;2022-11-20T11:11:29;18.90;;;8.40;;
5801;SDS011;2927;49.366;8.530;2022-11-20T11:14:11;8.43;;;4.57;;
5801;SDS011;2927;49.366;8.530;2022-11-20T11:19:17;16.27;;;7.53;;
5801;SDS011;2927;49.366;8.530;2022-11-20T11:21:47;9.30;;;6.43;;
5801;SDS011;2927;49.366;8.530;2022-11-20T11:29:29;7.47;;;5.10;;
5801;SDS011;2927;49.366;8.530;2022-11-20T11:34:37;11.77;;;7.10;;
5801;SDS011;2927;49.366;8.530;2022-11-20T11:37:03;9.00;;;6.80;;
5801;SDS011;2927;49.366;8.530;2022-11-20T11:39:35;8.47;;;5.77;;
5801;SDS011;2927;49.366;8.530;2022-11-20T11:42:03;15.80;;;8.90;;
5801;SDS011;2927;49.366;8.530;2022-11-20T11:47:25;10.27;;;6.70;;
5801;SDS011;2927;49.366;8.530;2022-11-20T11:50:28;12.27;;;7.43;;
5801;SDS011;2927;49.366;8.530;2022-11-20T12:00:28;16.03;;;7.93;;
5801;SDS011;2927;49.366;8.530;2022-11-20T12:02:57;12.00;;;6.80;;
5801;SDS011;2927;49.366;8.530;2022-11-20T12:06:17;10.13;;;5.90;;
5801;SDS011;2927;49.366;8.530;2022-11-20T12:11:34;9.57;;;4.70;;
5801;SDS011;2927;49.366;8.530;2022-11-20T12:16:44;5.03;;;2.20;;
5801;SDS011;2927;49.366;8.530;2022-11-20T12:19:11;4.47;;;2.50;;
5801;SDS011;2927;49.366;8.530;2022-11-20T12:24:32;2.57;;;1.30;;
5801;SDS011;2927;49.366;8.530;2022-11-20T12:27:27;3.70;;;1.20;;
5801;SDS011;2927;49.366;8.530;2022-11-20T12:30:15;8.60;;;1.50;;
5801;SDS011;2927;49.366;8.530;2022-11-20T12:32:47;2.30;;;1.00;;
5801;SDS011;2927;49.366;8.530;2022-11-20T12:44:10;1.23;;;0.70;;
5801;SDS011;2927;49.366;8.530;2022-11-20T12:52:46;1.40;;;1.30;;
5801;SDS011;2927;49.366;8.530;2022-11-20T12:55:16;5.70;;;1.33;;
5801;SDS011;2927;49.366;8.530;2022-11-20T13:00:30;2.70;;;1.17;;
5801;SDS011;2927;49.366;8.530;2022-11-20T13:08:27;2.40;;;1.10;;
5801;SDS011;2927;49.366;8.530;2022-11-20T13:18:39;2.87;;;1.13;;
5801;SDS011;2927;49.366;8.530;2022-11-20T13:21:17;2.87;;;0.67;;
5801;SDS011;2927;49.366;8.530;2022-11-20T13:24:06;3.13;;;1.20;;
5801;SDS011;2927;49.366;8.530;2022-11-20T13:26:32;1.53;;;0.67;;
5801;SDS011;2927;49.366;8.530;2022-11-20T13:29:03;2.50;;;1.20;;
5801;SDS011;2927;49.366;8.530;2022-11-20T13:31:36;2.87;;;1.20;;
5801;SDS011;2927;49.366;8.530;2022-11-20T13:34:09;3.47;;;1.23;;
5801;SDS011;2927;49.366;8.530;2022-11-20T13:36:48;1.23;;;1.00;;
5801;SDS011;2927;49.366;8.530;2022-11-20T13:39:27;2.17;;;0.93;;
5801;SDS011;2927;49.366;8.530;2022-11-20T13:42:01;2.40;;;1.10;;
5801;SDS011;2927;49.366;8.530;2022-11-20T13:44:42;1.83;;;0.57;;
5801;SDS011;2927;49.366;8.530;2022-11-20T13:47:21;3.20;;;1.20;;
5801;SDS011;2927;49.366;8.530;2022-11-20T13:49:49;6.93;;;2.27;;
5801;SDS011;2927;49.366;8.530;2022-11-20T13:55:07;1.53;;;1.10;;
5801;SDS011;2927;49.366;8.530;2022-11-20T13:58:15;2.13;;;0.67;;
5801;SDS011;2927;49.366;8.530;2022-11-20T14:00:51;2.80;;;1.20;;
5801;SDS011;2927;49.366;8.530;2022-11-20T14:03:39;3.60;;;2.30;;
5801;SDS011;2927;49.366;8.530;2022-11-20T14:06:10;1.77;;;0.80;;
5801;SDS011;2927;49.366;8.530;2022-11-20T14:08:56;3.13;;;1.17;;
5801;SDS011;2927;49.366;8.530;2022-11-20T14:11:23;1.90;;;0.90;;
5801;SDS011;2927;49.366;8.530;2022-11-20T14:14:33;2.67;;;0.93;;
5801;SDS011;2927;49.366;8.530;2022-11-20T14:16:44;3.10;;;1.17;;
5801;SDS011;2927;49.366;8.530;2022-11-20T14:19:28;1.37;;;0.70;;
5801;SDS011;2927;49.366;8.530;2022-11-20T14:22:08;4.37;;;0.80;;
5801;SDS011;2927;49.366;8.530;2022-11-20T14:29:52;3.03;;;0.80;;
5801;SDS011;2927;49.366;8.530;2022-11-20T14:32:19;1.80;;;0.57;;
5801;SDS011;2927;49.366;8.530;2022-11-20T14:37:26;2.60;;;0.57;;
5801;SDS011;2927;49.366;8.530;2022-11-20T14:39:55;4.90;;;0.93;;
5801;SDS011;2927;49.366;8.530;2022-11-20T14:52:52;4.33;;;1.30;;
5801;SDS011;2927;49.366;8.530;2022-11-20T15:00:29;7.30;;;2.50;;
5801;SDS011;2927;49.366;8.530;2022-11-20T15:08:07;6.60;;;4.17;;
5801;SDS011;2927;49.366;8.530;2022-11-20T15:10:34;6.87;;;3.30;;
5801;SDS011;2927;49.366;8.530;2022-11-20T15:13:01;5.67;;;3.80;;
5801;SDS011;2927;49.366;8.530;2022-11-20T15:15:35;4.97;;;2.50;;
5801;SDS011;2927;49.366;8.530;2022-11-20T15:18:12;6.30;;;4.10;;
5801;SDS011;2927;49.366;8.530;2022-11-20T15:20:39;9.73;;;3.23;;
5801;SDS011;2927;49.366;8.530;2022-11-20T15:25:41;5.83;;;3.30;;
5801;SDS011;2927;49.366;8.530;2022-11-20T15:28:16;12.70;;;7.00;;
5801;SDS011;2927;49.366;8.530;2022-11-20T15:30:55;8.70;;;4.00;;
5801;SDS011;2927;49.366;8.530;2022-11-20T15:33:21;9.80;;;3.53;;
5801;SDS011;2927;49.366;8.530;2022-11-20T15:35:47;5.47;;;2.27;;
5801;SDS011;2927;49.366;8.530;2022-11-20T15:38:13;2.90;;;1.80;;
5801;SDS011;2927;49.366;8.530;2022-11-20T15:40:39;2.30;;;2.03;;
5801;SDS011;2927;49.366;8.530;2022-11-20T15:43:04;6.90;;;2.70;;
5801;SDS011;2927;49.366;8.530;2022-11-20T15:45:43;4.63;;;2.30;;
5801;SDS011;2927;49.366;8.530;2022-11-20T15:48:18;10.53;;;2.40;;
5801;SDS011;2927;49.366;8.530;2022-11-20T15:53:24;5.27;;;3.33;;
5801;SDS011;2927;49.366;8.530;2022-11-20T15:55:50;4.97;;;2.00;;
5801;SDS011;2927;49.366;8.530;2022-11-20T15:58:16;7.93;;;2.00;;
5801;SDS011;2927;49.366;8.530;2022-11-20T16:00:42;5.40;;;2.10;;
5801;SDS011;2927;49.366;8.530;2022-11-20T16:03:09;3.57;;;1.93;;
5801;SDS011;2927;49.366;8.530;2022-11-20T16:05:36;10.23;;;2.70;;
5801;SDS011;2927;49.366;8.530;2022-11-20T16:08:02;6.40;;;2.60;;
5801;SDS011;2927;49.366;8.530;2022-11-20T16:10:27;8.30;;;2.77;;
5801;SDS011;2927;49.366;8.530;2022-11-20T16:12:53;10.10;;;3.07;;
5801;SDS011;2927;49.366;8.530;2022-11-20T16:15:38;7.63;;;2.90;;
5801;SDS011;2927;49.366;8.530;2022-11-20T16:18:20;4.77;;;2.03;;
5801;SDS011;2927;49.366;8.530;2022-11-20T16:20:47;23.10;;;7.37;;
5801;SDS011;2927;49.366;8.530;2022-11-20T16:23:16;4.00;;;1.53;;
5801;SDS011;2927;49.366;8.530;2022-11-20T16:25:43;2.73;;;1.20;;
5801;SDS011;2927;49.366;8.530;2022-11-20T16:28:09;4.60;;;1.40;;
5801;SDS011;2927;49.366;8.530;2022-11-20T16:30:35;2.23;;;1.20;;
5801;SDS011;2927;49.366;8.530;2022-11-20T16:33:01;9.63;;;2.87;;
5801;SDS011;2927;49.366;8.530;2022-11-20T16:35:29;112.77;;;33.80;;
5801;SDS011;2927;49.366;8.530;2022-11-20T16:37:56;15.00;;;7.30;;
5801;SDS011;2927;49.366;8.530;2022-11-20T16:40:23;11.27;;;3.10;;
5801;SDS011;2927;49.366;8.530;2022-11-20T16:42:49;9.97;;;4.10;;
5801;SDS011;2927;49.366;8.530;2022-11-20T16:45:14;14.47;;;4.57;;
5801;SDS011;2927;49.366;8.530;2022-11-20T16:47:40;2.63;;;1.53;;
5801;SDS011;2927;49.366;8.530;2022-11-20T16:50:06;5.30;;;1.80;;
5801;SDS011;2927;49.366;8.530;2022-11-20T16:52:32;2.80;;;1.73;;
5801;SDS011;2927;49.366;8.530;2022-11-20T16:54:57;6.67;;;2.80;;
5801;SDS011;2927;49.366;8.530;2022-11-20T16:57:23;4.37;;;2.30;;
5801;SDS011;2927;49.366;8.530;2022-11-20T16:59:51;8.30;;;1.60;;
5801;SDS011;2927;49.366;8.530;2022-11-20T17:02:17;5.70;;;2.83;;
5801;SDS011;2927;49.366;8.530;2022-11-20T17:04:42;7.50;;;2.47;;
5801;SDS011;2927;49.366;8.530;2022-11-20T17:07:08;3.50;;;1.80;;
5801;SDS011;2927;49.366;8.530;2022-11-20T17:09:33;7.50;;;4.00;;
5801;SDS011;2927;49.366;8.530;2022-11-20T17:11:59;6.43;;;3.63;;
5801;SDS011;2927;49.366;8.530;2022-11-20T17:14:24;4.70;;;2.33;;
5801;SDS011;2927;49.366;8.530;2022-11-20T17:16:50;3.37;;;2.03;;
5801;SDS011;2927;49.366;8.530;2022-11-20T17:19:15;3.50;;;2.13;;
5801;SDS011;2927;49.366;8.530;2022-11-20T17:21:41;2.73;;;1.93;;
5801;SDS011;2927;49.366;8.530;2022-11-20T17:24:07;9.40;;;2.67;;
5801;SDS011;2927;49.366;8.530;2022-11-20T17:26:35;4.37;;;2.33;;